sensor_id;sensor_type;location;lat;lon;timestamp;temperature;humidity
67899;DHT22;54699;51.796;10.956;2023-04-07T00:00:14;19.50;50.10
67899;DHT22;54699;51.796;10.956;2023-04-07T00:02:42;19.50;50.10
67899;DHT22;54699;51.796;10.956;2023-04-07T00:05:09;19.50;50.10
67899;DHT22;54699;51.796;10.956;2023-04-07T00:07:40;19.50;50.20
67899;DHT22;54699;51.796;10.956;2023-04-07T00:10:07;19.50;50.20
67899;DHT22;54699;51.796;10.956;2023-04-07T00:12:34;19.40;50.60
67899;DHT22;54699;51.796;10.956;2023-04-07T00:15:01;19.50;50.10
67899;DHT22;54699;51.796;10.956;2023-04-07T00:17:28;19.40;50.10
67899;DHT22;54699;51.796;10.956;2023-04-07T00:19:55;19.50;50.10
67899;DHT22;54699;51.796;10.956;2023-04-07T00:22:22;19.40;49.90
67899;DHT22;54699;51.796;10.956;2023-04-07T00:24:50;19.50;50.10
67899;DHT22;54699;51.796;10.956;2023-04-07T00:27:17;19.40;50.00
67899;DHT22;54699;51.796;10.956;2023-04-07T00:29:44;19.50;50.20
67899;DHT22;54699;51.796;10.956;2023-04-07T00:32:11;19.40;50.00
67899;DHT22;54699;51.796;10.956;2023-04-07T00:34:38;19.40;50.00
67899;DHT22;54699;51.796;10.956;2023-04-07T00:37:05;19.40;50.00
67899;DHT22;54699;51.796;10.956;2023-04-07T00:39:32;19.40;50.00
67899;DHT22;54699;51.796;10.956;2023-04-07T00:42:00;19.40;50.00
67899;DHT22;54699;51.796;10.956;2023-04-07T00:44:29;19.40;50.00
67899;DHT22;54699;51.796;10.956;2023-04-07T00:46:56;19.40;50.00
67899;DHT22;54699;51.796;10.956;2023-04-07T00:49:22;19.40;50.00
67899;DHT22;54699;51.796;10.956;2023-04-07T00:51:52;19.40;49.90
67899;DHT22;54699;51.796;10.956;2023-04-07T00:54:19;19.40;49.90
67899;DHT22;54699;51.796;10.956;2023-04-07T00:56:47;19.30;49.80
67899;DHT22;54699;51.796;10.956;2023-04-07T00:59:15;19.40;49.90
67899;DHT22;54699;51.796;10.956;2023-04-07T01:01:43;19.40;49.90
67899;DHT22;54699;51.796;10.956;2023-04-07T01:04:18;19.40;50.30
67899;DHT22;54699;51.796;10.956;2023-04-07T01:06:53;19.30;49.80
67899;DHT22;54699;51.796;10.956;2023-04-07T01:09:29;19.30;49.80
67899;DHT22;54699;51.796;10.956;2023-04-07T01:12:02;19.30;49.90
67899;DHT22;54699;51.796;10.956;2023-04-07T01:14:38;19.30;49.80
67899;DHT22;54699;51.796;10.956;2023-04-07T01:17:07;19.30;49.80
67899;DHT22;54699;51.796;10.956;2023-04-07T01:19:38;19.30;49.80
67899;DHT22;54699;51.796;10.956;2023-04-07T01:22:13;19.30;49.80
67899;DHT22;54699;51.796;10.956;2023-04-07T01:24:47;19.30;49.90
67899;DHT22;54699;51.796;10.956;2023-04-07T01:27:32;19.30;49.80
67899;DHT22;54699;51.796;10.956;2023-04-07T01:30:04;19.30;49.90
67899;DHT22;54699;51.796;10.956;2023-04-07T01:32:35;19.30;49.80
67899;DHT22;54699;51.796;10.956;2023-04-07T01:35:05;19.30;49.80
67899;DHT22;54699;51.796;10.956;2023-04-07T01:37:36;19.30;49.80
67899;DHT22;54699;51.796;10.956;2023-04-07T01:40:04;19.30;49.90
67899;DHT22;54699;51.796;10.956;2023-04-07T01:42:33;19.20;49.80
67899;DHT22;54699;51.796;10.956;2023-04-07T01:45:04;19.30;49.80
67899;DHT22;54699;51.796;10.956;2023-04-07T01:47:33;19.30;49.80
67899;DHT22;54699;51.796;10.956;2023-04-07T01:50:02;19.30;49.80
67899;DHT22;54699;51.796;10.956;2023-04-07T01:52:29;19.30;49.90
67899;DHT22;54699;51.796;10.956;2023-04-07T01:54:57;19.20;49.80
67899;DHT22;54699;51.796;10.956;2023-04-07T01:57:24;19.20;49.70
67899;DHT22;54699;51.796;10.956;2023-04-07T01:59:52;19.20;49.80
67899;DHT22;54699;51.796;10.956;2023-04-07T02:02:20;19.20;49.80
67899;DHT22;54699;51.796;10.956;2023-04-07T02:04:48;19.20;49.80
67899;DHT22;54699;51.796;10.956;2023-04-07T02:07:24;19.20;49.80
67899;DHT22;54699;51.796;10.956;2023-04-07T02:09:55;19.20;49.80
67899;DHT22;54699;51.796;10.956;2023-04-07T02:12:26;19.20;49.80
67899;DHT22;54699;51.796;10.956;2023-04-07T02:14:54;19.20;49.90
67899;DHT22;54699;51.796;10.956;2023-04-07T02:17:23;19.20;49.90
67899;DHT22;54699;51.796;10.956;2023-04-07T02:19:52;19.20;49.90
67899;DHT22;54699;51.796;10.956;2023-04-07T02:22:19;19.10;49.80
67899;DHT22;54699;51.796;10.956;2023-04-07T02:24:46;19.10;49.80
67899;DHT22;54699;51.796;10.956;2023-04-07T02:27:13;19.10;49.90
67899;DHT22;54699;51.796;10.956;2023-04-07T02:29:39;19.10;49.90
67899;DHT22;54699;51.796;10.956;2023-04-07T02:32:06;19.10;49.90
67899;DHT22;54699;51.796;10.956;2023-04-07T02:34:35;19.10;49.90
67899;DHT22;54699;51.796;10.956;2023-04-07T02:37:01;19.10;49.90
67899;DHT22;54699;51.796;10.956;2023-04-07T02:39:28;19.10;49.90
67899;DHT22;54699;51.796;10.956;2023-04-07T02:41:55;19.10;49.90
67899;DHT22;54699;51.796;10.956;2023-04-07T02:44:22;19.10;49.80
67899;DHT22;54699;51.796;10.956;2023-04-07T02:46:49;19.10;49.90
67899;DHT22;54699;51.796;10.956;2023-04-07T02:49:15;19.10;49.90
67899;DHT22;54699;51.796;10.956;2023-04-07T02:51:43;19.10;49.90
67899;DHT22;54699;51.796;10.956;2023-04-07T02:54:11;19.10;50.00
67899;DHT22;54699;51.796;10.956;2023-04-07T02:56:38;19.00;50.00
67899;DHT22;54699;51.796;10.956;2023-04-07T02:59:04;19.00;50.00
67899;DHT22;54699;51.796;10.956;2023-04-07T03:01:31;19.00;49.90
67899;DHT22;54699;51.796;10.956;2023-04-07T03:03:59;19.00;49.90
67899;DHT22;54699;51.796;10.956;2023-04-07T03:06:25;19.00;49.90
67899;DHT22;54699;51.796;10.956;2023-04-07T03:08:54;19.00;49.80
67899;DHT22;54699;51.796;10.956;2023-04-07T03:11:21;19.00;49.90
67899;DHT22;54699;51.796;10.956;2023-04-07T03:13:47;19.00;49.80
67899;DHT22;54699;51.796;10.956;2023-04-07T03:16:14;19.00;49.90
67899;DHT22;54699;51.796;10.956;2023-04-07T03:18:44;19.00;49.90
67899;DHT22;54699;51.796;10.956;2023-04-07T03:21:11;19.00;49.90
67899;DHT22;54699;51.796;10.956;2023-04-07T03:23:38;19.00;49.90
67899;DHT22;54699;51.796;10.956;2023-04-07T03:26:06;19.00;49.90
67899;DHT22;54699;51.796;10.956;2023-04-07T03:28:33;18.90;49.80
67899;DHT22;54699;51.796;10.956;2023-04-07T03:31:00;18.90;49.80
67899;DHT22;54699;51.796;10.956;2023-04-07T03:33:27;18.90;49.80
67899;DHT22;54699;51.796;10.956;2023-04-07T03:35:54;18.90;49.80
67899;DHT22;54699;51.796;10.956;2023-04-07T03:38:21;18.90;49.80
67899;DHT22;54699;51.796;10.956;2023-04-07T03:40:48;18.90;49.80
67899;DHT22;54699;51.796;10.956;2023-04-07T03:43:17;18.90;49.90
67899;DHT22;54699;51.796;10.956;2023-04-07T03:45:44;18.90;49.90
67899;DHT22;54699;51.796;10.956;2023-04-07T03:48:12;18.90;49.80
67899;DHT22;54699;51.796;10.956;2023-04-07T03:50:39;18.90;49.80
67899;DHT22;54699;51.796;10.956;2023-04-07T03:53:08;18.90;49.90
67899;DHT22;54699;51.796;10.956;2023-04-07T03:55:35;18.90;49.80
67899;DHT22;54699;51.796;10.956;2023-04-07T03:58:03;18.90;50.80
67899;DHT22;54699;51.796;10.956;2023-04-07T04:00:31;18.90;49.80
67899;DHT22;54699;51.796;10.956;2023-04-07T04:02:58;18.90;49.80
67899;DHT22;54699;51.796;10.956;2023-04-07T04:05:26;18.90;49.90
67899;DHT22;54699;51.796;10.956;2023-04-07T04:07:52;18.90;49.80
67899;DHT22;54699;51.796;10.956;2023-04-07T04:10:20;18.90;49.80
67899;DHT22;54699;51.796;10.956;2023-04-07T04:12:47;18.90;49.90
67899;DHT22;54699;51.796;10.956;2023-04-07T04:15:14;18.80;49.80
67899;DHT22;54699;51.796;10.956;2023-04-07T04:17:43;18.80;49.70
67899;DHT22;54699;51.796;10.956;2023-04-07T04:20:10;18.80;49.80
67899;DHT22;54699;51.796;10.956;2023-04-07T04:22:37;18.90;49.80
67899;DHT22;54699;51.796;10.956;2023-04-07T04:25:04;18.80;49.70
67899;DHT22;54699;51.796;10.956;2023-04-07T04:27:31;18.80;49.70
67899;DHT22;54699;51.796;10.956;2023-04-07T04:29:58;18.80;49.80
67899;DHT22;54699;51.796;10.956;2023-04-07T04:32:25;18.80;49.80
67899;DHT22;54699;51.796;10.956;2023-04-07T04:34:53;18.80;49.70
67899;DHT22;54699;51.796;10.956;2023-04-07T04:37:20;18.80;49.80
67899;DHT22;54699;51.796;10.956;2023-04-07T04:39:47;18.80;49.70
67899;DHT22;54699;51.796;10.956;2023-04-07T04:42:14;18.80;49.70
67899;DHT22;54699;51.796;10.956;2023-04-07T04:44:41;18.80;49.60
67899;DHT22;54699;51.796;10.956;2023-04-07T04:47:08;18.80;49.70
67899;DHT22;54699;51.796;10.956;2023-04-07T04:49:35;18.80;49.60
67899;DHT22;54699;51.796;10.956;2023-04-07T04:52:04;18.80;49.60
67899;DHT22;54699;51.796;10.956;2023-04-07T04:54:31;18.80;49.60
67899;DHT22;54699;51.796;10.956;2023-04-07T04:56:57;18.80;49.60
67899;DHT22;54699;51.796;10.956;2023-04-07T04:59:26;18.80;49.60
67899;DHT22;54699;51.796;10.956;2023-04-07T05:01:53;18.80;49.60
67899;DHT22;54699;51.796;10.956;2023-04-07T05:04:20;18.80;49.60
67899;DHT22;54699;51.796;10.956;2023-04-07T05:06:47;18.70;49.50
67899;DHT22;54699;51.796;10.956;2023-04-07T05:09:16;18.80;49.60
67899;DHT22;54699;51.796;10.956;2023-04-07T05:11:43;18.70;49.50
67899;DHT22;54699;51.796;10.956;2023-04-07T05:14:10;18.70;49.50
67899;DHT22;54699;51.796;10.956;2023-04-07T05:16:37;18.70;49.50
67899;DHT22;54699;51.796;10.956;2023-04-07T05:19:04;18.70;49.50
67899;DHT22;54699;51.796;10.956;2023-04-07T05:21:31;18.70;49.50
67899;DHT22;54699;51.796;10.956;2023-04-07T05:23:58;18.70;49.50
67899;DHT22;54699;51.796;10.956;2023-04-07T05:26:27;18.70;49.50
67899;DHT22;54699;51.796;10.956;2023-04-07T05:28:54;18.70;49.40
67899;DHT22;54699;51.796;10.956;2023-04-07T05:31:21;18.70;49.50
67899;DHT22;54699;51.796;10.956;2023-04-07T05:33:48;18.70;49.50
67899;DHT22;54699;51.796;10.956;2023-04-07T05:36:15;18.70;49.40
67899;DHT22;54699;51.796;10.956;2023-04-07T05:38:42;18.70;49.50
67899;DHT22;54699;51.796;10.956;2023-04-07T05:41:09;18.70;49.50
67899;DHT22;54699;51.796;10.956;2023-04-07T05:43:38;18.70;49.50
67899;DHT22;54699;51.796;10.956;2023-04-07T05:46:05;18.70;49.40
67899;DHT22;54699;51.796;10.956;2023-04-07T05:48:32;18.70;49.40
67899;DHT22;54699;51.796;10.956;2023-04-07T05:50:59;18.70;49.50
67899;DHT22;54699;51.796;10.956;2023-04-07T05:53:26;18.70;49.40
67899;DHT22;54699;51.796;10.956;2023-04-07T05:55:53;18.70;49.50
67899;DHT22;54699;51.796;10.956;2023-04-07T05:58:21;18.70;49.50
67899;DHT22;54699;51.796;10.956;2023-04-07T06:00:50;18.70;49.50
67899;DHT22;54699;51.796;10.956;2023-04-07T06:03:17;18.70;49.50
67899;DHT22;54699;51.796;10.956;2023-04-07T06:05:44;18.70;49.60
67899;DHT22;54699;51.796;10.956;2023-04-07T06:08:11;18.70;49.60
67899;DHT22;54699;51.796;10.956;2023-04-07T06:10:38;18.70;49.60
67899;DHT22;54699;51.796;10.956;2023-04-07T06:13:06;18.70;49.60
67899;DHT22;54699;51.796;10.956;2023-04-07T06:15:33;18.70;49.60
67899;DHT22;54699;51.796;10.956;2023-04-07T06:18:02;18.70;49.60
67899;DHT22;54699;51.796;10.956;2023-04-07T06:20:30;18.70;49.60
67899;DHT22;54699;51.796;10.956;2023-04-07T06:22:57;18.70;49.60
67899;DHT22;54699;51.796;10.956;2023-04-07T06:25:24;18.70;49.60
67899;DHT22;54699;51.796;10.956;2023-04-07T06:27:52;18.70;49.50
67899;DHT22;54699;51.796;10.956;2023-04-07T06:30:19;18.70;49.60
67899;DHT22;54699;51.796;10.956;2023-04-07T06:32:46;18.70;49.60
67899;DHT22;54699;51.796;10.956;2023-04-07T06:35:14;18.70;49.50
67899;DHT22;54699;51.796;10.956;2023-04-07T06:37:41;18.70;49.60
67899;DHT22;54699;51.796;10.956;2023-04-07T06:40:08;18.70;49.60
67899;DHT22;54699;51.796;10.956;2023-04-07T06:42:35;18.70;49.70
67899;DHT22;54699;51.796;10.956;2023-04-07T06:45:03;18.70;49.60
67899;DHT22;54699;51.796;10.956;2023-04-07T06:47:30;18.70;49.60
67899;DHT22;54699;51.796;10.956;2023-04-07T06:49:57;18.70;49.50
67899;DHT22;54699;51.796;10.956;2023-04-07T06:52:28;18.70;49.60
67899;DHT22;54699;51.796;10.956;2023-04-07T06:54:56;18.80;49.50
67899;DHT22;54699;51.796;10.956;2023-04-07T06:57:23;18.80;49.70
67899;DHT22;54699;51.796;10.956;2023-04-07T06:59:56;18.70;49.60
67899;DHT22;54699;51.796;10.956;2023-04-07T07:02:23;18.70;49.60
67899;DHT22;54699;51.796;10.956;2023-04-07T07:04:50;18.80;49.60
67899;DHT22;54699;51.796;10.956;2023-04-07T07:07:17;18.70;49.60
67899;DHT22;54699;51.796;10.956;2023-04-07T07:09:45;18.80;49.70
67899;DHT22;54699;51.796;10.956;2023-04-07T07:12:13;18.80;49.70
67899;DHT22;54699;51.796;10.956;2023-04-07T07:14:42;18.80;49.60
67899;DHT22;54699;51.796;10.956;2023-04-07T07:17:09;18.80;49.60
67899;DHT22;54699;51.796;10.956;2023-04-07T07:19:38;18.80;49.60
67899;DHT22;54699;51.796;10.956;2023-04-07T07:22:06;18.80;49.60
67899;DHT22;54699;51.796;10.956;2023-04-07T07:24:33;18.80;49.60
67899;DHT22;54699;51.796;10.956;2023-04-07T07:27:01;18.80;49.70
67899;DHT22;54699;51.796;10.956;2023-04-07T07:29:28;18.80;49.70
67899;DHT22;54699;51.796;10.956;2023-04-07T07:31:55;18.80;49.60
67899;DHT22;54699;51.796;10.956;2023-04-07T07:34:22;18.80;49.60
67899;DHT22;54699;51.796;10.956;2023-04-07T07:36:49;18.80;49.60
67899;DHT22;54699;51.796;10.956;2023-04-07T07:39:16;18.80;49.60
67899;DHT22;54699;51.796;10.956;2023-04-07T07:41:43;18.80;49.60
67899;DHT22;54699;51.796;10.956;2023-04-07T07:44:12;18.80;49.70
67899;DHT22;54699;51.796;10.956;2023-04-07T07:46:39;18.80;49.50
67899;DHT22;54699;51.796;10.956;2023-04-07T07:49:06;18.80;49.50
67899;DHT22;54699;51.796;10.956;2023-04-07T07:51:33;18.80;49.50
67899;DHT22;54699;51.796;10.956;2023-04-07T07:54:02;18.80;49.50
67899;DHT22;54699;51.796;10.956;2023-04-07T07:56:29;18.80;49.60
67899;DHT22;54699;51.796;10.956;2023-04-07T07:58:56;18.80;49.50
67899;DHT22;54699;51.796;10.956;2023-04-07T08:01:24;18.80;49.40
67899;DHT22;54699;51.796;10.956;2023-04-07T08:03:51;18.80;49.50
67899;DHT22;54699;51.796;10.956;2023-04-07T08:06:18;18.80;49.60
67899;DHT22;54699;51.796;10.956;2023-04-07T08:08:46;18.80;49.50
67899;DHT22;54699;51.796;10.956;2023-04-07T08:11:13;18.90;49.60
67899;DHT22;54699;51.796;10.956;2023-04-07T08:13:41;18.90;49.50
67899;DHT22;54699;51.796;10.956;2023-04-07T08:16:10;18.90;49.50
67899;DHT22;54699;51.796;10.956;2023-04-07T08:18:39;18.90;49.50
67899;DHT22;54699;51.796;10.956;2023-04-07T08:21:06;18.90;49.60
67899;DHT22;54699;51.796;10.956;2023-04-07T08:23:33;18.90;49.50
67899;DHT22;54699;51.796;10.956;2023-04-07T08:26:01;18.90;49.60
67899;DHT22;54699;51.796;10.956;2023-04-07T08:28:27;18.90;49.60
67899;DHT22;54699;51.796;10.956;2023-04-07T08:30:54;18.90;49.50
67899;DHT22;54699;51.796;10.956;2023-04-07T08:33:21;19.00;49.70
67899;DHT22;54699;51.796;10.956;2023-04-07T08:35:50;19.00;49.50
67899;DHT22;54699;51.796;10.956;2023-04-07T08:38:17;19.00;49.40
67899;DHT22;54699;51.796;10.956;2023-04-07T08:40:44;19.00;49.70
67899;DHT22;54699;51.796;10.956;2023-04-07T08:43:12;19.00;49.30
67899;DHT22;54699;51.796;10.956;2023-04-07T08:45:42;19.00;50.00
67899;DHT22;54699;51.796;10.956;2023-04-07T08:48:12;19.00;50.50
67899;DHT22;54699;51.796;10.956;2023-04-07T08:50:42;19.00;50.60
67899;DHT22;54699;51.796;10.956;2023-04-07T08:53:12;19.00;50.90
67899;DHT22;54699;51.796;10.956;2023-04-07T08:55:43;19.00;51.00
67899;DHT22;54699;51.796;10.956;2023-04-07T08:58:12;19.00;51.50
67899;DHT22;54699;51.796;10.956;2023-04-07T09:00:41;19.00;50.80
67899;DHT22;54699;51.796;10.956;2023-04-07T09:03:10;19.00;50.40
67899;DHT22;54699;51.796;10.956;2023-04-07T09:05:37;19.00;50.10
67899;DHT22;54699;51.796;10.956;2023-04-07T09:08:04;19.00;49.20
67899;DHT22;54699;51.796;10.956;2023-04-07T09:10:33;19.00;48.70
67899;DHT22;54699;51.796;10.956;2023-04-07T09:13:01;19.10;48.70
67899;DHT22;54699;51.796;10.956;2023-04-07T09:15:29;19.10;48.80
67899;DHT22;54699;51.796;10.956;2023-04-07T09:17:57;19.10;48.80
67899;DHT22;54699;51.796;10.956;2023-04-07T09:20:24;19.10;48.90
67899;DHT22;54699;51.796;10.956;2023-04-07T09:22:51;19.10;48.70
67899;DHT22;54699;51.796;10.956;2023-04-07T09:25:19;19.20;48.80
67899;DHT22;54699;51.796;10.956;2023-04-07T09:27:56;19.20;48.30
67899;DHT22;54699;51.796;10.956;2023-04-07T09:30:25;19.20;48.30
67899;DHT22;54699;51.796;10.956;2023-04-07T09:32:52;19.20;47.80
67899;DHT22;54699;51.796;10.956;2023-04-07T09:35:20;19.20;47.50
67899;DHT22;54699;51.796;10.956;2023-04-07T09:40:30;19.30;46.90
67899;DHT22;54699;51.796;10.956;2023-04-07T09:42:59;19.30;41.80
67899;DHT22;54699;51.796;10.956;2023-04-07T09:45:29;19.30;42.90
67899;DHT22;54699;51.796;10.956;2023-04-07T09:47:59;19.40;42.00
67899;DHT22;54699;51.796;10.956;2023-04-07T09:50:31;19.40;40.90
67899;DHT22;54699;51.796;10.956;2023-04-07T09:52:59;19.40;41.60
67899;DHT22;54699;51.796;10.956;2023-04-07T09:55:27;19.50;42.60
67899;DHT22;54699;51.796;10.956;2023-04-07T09:57:54;19.50;41.90
67899;DHT22;54699;51.796;10.956;2023-04-07T10:00:23;19.50;40.90
67899;DHT22;54699;51.796;10.956;2023-04-07T10:02:50;19.50;41.60
67899;DHT22;54699;51.796;10.956;2023-04-07T10:05:17;19.50;43.40
67899;DHT22;54699;51.796;10.956;2023-04-07T10:07:47;19.60;45.70
67899;DHT22;54699;51.796;10.956;2023-04-07T10:10:14;19.60;43.20
67899;DHT22;54699;51.796;10.956;2023-04-07T10:12:43;19.60;43.90
67899;DHT22;54699;51.796;10.956;2023-04-07T10:15:14;19.70;43.70
67899;DHT22;54699;51.796;10.956;2023-04-07T10:17:45;19.70;44.40
67899;DHT22;54699;51.796;10.956;2023-04-07T10:20:16;19.70;43.50
67899;DHT22;54699;51.796;10.956;2023-04-07T10:22:45;19.70;44.00
67899;DHT22;54699;51.796;10.956;2023-04-07T10:25:16;19.70;43.60
67899;DHT22;54699;51.796;10.956;2023-04-07T10:27:47;19.70;44.90
67899;DHT22;54699;51.796;10.956;2023-04-07T10:30:19;19.80;45.50
67899;DHT22;54699;51.796;10.956;2023-04-07T10:32:52;19.80;45.70
67899;DHT22;54699;51.796;10.956;2023-04-07T10:35:20;19.80;45.40
67899;DHT22;54699;51.796;10.956;2023-04-07T10:40:38;19.80;45.70
67899;DHT22;54699;51.796;10.956;2023-04-07T10:43:06;19.90;45.60
67899;DHT22;54699;51.796;10.956;2023-04-07T10:45:54;19.90;45.70
67899;DHT22;54699;51.796;10.956;2023-04-07T10:48:25;19.90;45.70
67899;DHT22;54699;51.796;10.956;2023-04-07T10:51:16;19.90;45.60
67899;DHT22;54699;51.796;10.956;2023-04-07T10:57:04;20.00;45.30
67899;DHT22;54699;51.796;10.956;2023-04-07T10:59:34;20.00;45.30
67899;DHT22;54699;51.796;10.956;2023-04-07T11:04:59;20.10;45.40
67899;DHT22;54699;51.796;10.956;2023-04-07T11:07:46;20.10;45.40
67899;DHT22;54699;51.796;10.956;2023-04-07T11:10:15;20.10;45.20
67899;DHT22;54699;51.796;10.956;2023-04-07T11:12:44;20.10;45.10
67899;DHT22;54699;51.796;10.956;2023-04-07T11:15:24;20.10;45.40
67899;DHT22;54699;51.796;10.956;2023-04-07T11:18:07;20.10;45.60
67899;DHT22;54699;51.796;10.956;2023-04-07T11:20:43;20.10;45.50
67899;DHT22;54699;51.796;10.956;2023-04-07T11:23:15;20.10;45.10
67899;DHT22;54699;51.796;10.956;2023-04-07T11:25:44;20.20;45.60
67899;DHT22;54699;51.796;10.956;2023-04-07T11:28:13;20.20;45.80
67899;DHT22;54699;51.796;10.956;2023-04-07T11:30:47;20.20;45.30
67899;DHT22;54699;51.796;10.956;2023-04-07T11:33:17;20.20;45.50
67899;DHT22;54699;51.796;10.956;2023-04-07T11:35:53;20.20;45.50
67899;DHT22;54699;51.796;10.956;2023-04-07T11:38:22;20.20;45.50
67899;DHT22;54699;51.796;10.956;2023-04-07T11:40:50;20.30;45.80
67899;DHT22;54699;51.796;10.956;2023-04-07T11:43:18;20.30;46.10
67899;DHT22;54699;51.796;10.956;2023-04-07T11:46:02;20.30;46.30
67899;DHT22;54699;51.796;10.956;2023-04-07T11:48:31;20.30;46.50
67899;DHT22;54699;51.796;10.956;2023-04-07T11:51:00;20.30;46.80
67899;DHT22;54699;51.796;10.956;2023-04-07T11:53:28;20.30;46.70
67899;DHT22;54699;51.796;10.956;2023-04-07T11:55:58;20.40;46.80
67899;DHT22;54699;51.796;10.956;2023-04-07T11:58:28;20.30;47.00
67899;DHT22;54699;51.796;10.956;2023-04-07T12:00:56;20.40;47.50
67899;DHT22;54699;51.796;10.956;2023-04-07T12:03:27;20.40;47.40
67899;DHT22;54699;51.796;10.956;2023-04-07T12:05:54;20.40;47.60
67899;DHT22;54699;51.796;10.956;2023-04-07T12:08:36;20.50;47.60
67899;DHT22;54699;51.796;10.956;2023-04-07T12:11:04;20.50;48.00
67899;DHT22;54699;51.796;10.956;2023-04-07T12:13:32;20.50;49.40
67899;DHT22;54699;51.796;10.956;2023-04-07T12:15:59;20.50;48.40
67899;DHT22;54699;51.796;10.956;2023-04-07T12:18:26;20.60;49.40
67899;DHT22;54699;51.796;10.956;2023-04-07T12:20:55;20.60;49.20
67899;DHT22;54699;51.796;10.956;2023-04-07T12:23:33;20.60;49.20
67899;DHT22;54699;51.796;10.956;2023-04-07T12:26:01;20.60;49.90
67899;DHT22;54699;51.796;10.956;2023-04-07T12:28:28;20.60;50.30
67899;DHT22;54699;51.796;10.956;2023-04-07T12:30:55;20.60;50.00
67899;DHT22;54699;51.796;10.956;2023-04-07T12:33:24;20.60;50.20
67899;DHT22;54699;51.796;10.956;2023-04-07T12:35:55;20.70;50.20
67899;DHT22;54699;51.796;10.956;2023-04-07T12:38:22;20.70;50.00
67899;DHT22;54699;51.796;10.956;2023-04-07T12:40:49;20.70;50.40
67899;DHT22;54699;51.796;10.956;2023-04-07T12:43:18;20.70;50.20
67899;DHT22;54699;51.796;10.956;2023-04-07T12:45:45;20.70;50.50
67899;DHT22;54699;51.796;10.956;2023-04-07T12:48:12;20.80;50.80
67899;DHT22;54699;51.796;10.956;2023-04-07T12:50:40;20.80;51.00
67899;DHT22;54699;51.796;10.956;2023-04-07T12:53:07;20.80;51.00
67899;DHT22;54699;51.796;10.956;2023-04-07T12:55:34;20.80;51.10
67899;DHT22;54699;51.796;10.956;2023-04-07T12:58:01;20.80;51.20
67899;DHT22;54699;51.796;10.956;2023-04-07T13:00:30;20.80;51.20
67899;DHT22;54699;51.796;10.956;2023-04-07T13:02:57;20.90;51.60
67899;DHT22;54699;51.796;10.956;2023-04-07T13:05:24;20.90;51.90
67899;DHT22;54699;51.796;10.956;2023-04-07T13:07:51;20.90;51.80
67899;DHT22;54699;51.796;10.956;2023-04-07T13:10:20;20.90;51.90
67899;DHT22;54699;51.796;10.956;2023-04-07T13:12:47;20.90;52.00
67899;DHT22;54699;51.796;10.956;2023-04-07T13:15:14;21.00;52.20
67899;DHT22;54699;51.796;10.956;2023-04-07T13:17:43;21.00;52.30
67899;DHT22;54699;51.796;10.956;2023-04-07T13:20:10;21.00;52.30
67899;DHT22;54699;51.796;10.956;2023-04-07T13:22:37;21.10;52.30
67899;DHT22;54699;51.796;10.956;2023-04-07T13:25:04;21.10;52.40
67899;DHT22;54699;51.796;10.956;2023-04-07T13:27:32;21.10;52.60
67899;DHT22;54699;51.796;10.956;2023-04-07T13:29:59;21.10;52.40
67899;DHT22;54699;51.796;10.956;2023-04-07T13:32:26;21.20;52.50
67899;DHT22;54699;51.796;10.956;2023-04-07T13:34:54;21.20;52.60
67899;DHT22;54699;51.796;10.956;2023-04-07T13:37:21;21.20;52.60
67899;DHT22;54699;51.796;10.956;2023-04-07T13:39:48;21.20;52.70
67899;DHT22;54699;51.796;10.956;2023-04-07T13:42:15;21.20;52.80
67899;DHT22;54699;51.796;10.956;2023-04-07T13:44:44;21.20;53.00
67899;DHT22;54699;51.796;10.956;2023-04-07T13:47:12;21.30;52.80
67899;DHT22;54699;51.796;10.956;2023-04-07T13:49:44;21.30;52.90
67899;DHT22;54699;51.796;10.956;2023-04-07T13:52:13;21.30;52.90
67899;DHT22;54699;51.796;10.956;2023-04-07T13:54:40;21.30;52.70
67899;DHT22;54699;51.796;10.956;2023-04-07T13:57:08;21.30;52.60
67899;DHT22;54699;51.796;10.956;2023-04-07T13:59:35;21.40;52.70
67899;DHT22;54699;51.796;10.956;2023-04-07T14:02:02;21.40;52.70
67899;DHT22;54699;51.796;10.956;2023-04-07T14:04:29;21.40;52.70
67899;DHT22;54699;51.796;10.956;2023-04-07T14:06:56;21.40;52.50
67899;DHT22;54699;51.796;10.956;2023-04-07T14:09:24;21.40;52.70
67899;DHT22;54699;51.796;10.956;2023-04-07T14:11:51;21.40;52.70
67899;DHT22;54699;51.796;10.956;2023-04-07T14:14:18;21.50;52.60
67899;DHT22;54699;51.796;10.956;2023-04-07T14:16:45;21.40;52.50
67899;DHT22;54699;51.796;10.956;2023-04-07T14:19:12;21.40;52.60
67899;DHT22;54699;51.796;10.956;2023-04-07T14:21:39;21.50;52.60
67899;DHT22;54699;51.796;10.956;2023-04-07T14:24:06;21.50;52.90
67899;DHT22;54699;51.796;10.956;2023-04-07T14:26:34;21.50;52.90
67899;DHT22;54699;51.796;10.956;2023-04-07T14:29:01;21.50;52.90
67899;DHT22;54699;51.796;10.956;2023-04-07T14:31:29;21.50;52.90
67899;DHT22;54699;51.796;10.956;2023-04-07T14:33:56;21.50;52.90
67899;DHT22;54699;51.796;10.956;2023-04-07T14:36:22;21.50;53.00
67899;DHT22;54699;51.796;10.956;2023-04-07T14:38:49;21.50;53.10
67899;DHT22;54699;51.796;10.956;2023-04-07T14:41:19;21.50;52.90
67899;DHT22;54699;51.796;10.956;2023-04-07T14:43:47;21.50;53.20
67899;DHT22;54699;51.796;10.956;2023-04-07T14:46:20;21.50;53.00
67899;DHT22;54699;51.796;10.956;2023-04-07T14:48:47;21.50;53.10
67899;DHT22;54699;51.796;10.956;2023-04-07T14:51:19;21.50;53.00
67899;DHT22;54699;51.796;10.956;2023-04-07T14:53:47;21.50;53.00
67899;DHT22;54699;51.796;10.956;2023-04-07T14:56:17;21.50;52.90
67899;DHT22;54699;51.796;10.956;2023-04-07T14:58:46;21.60;53.10
67899;DHT22;54699;51.796;10.956;2023-04-07T15:01:13;21.50;52.90
67899;DHT22;54699;51.796;10.956;2023-04-07T15:03:40;21.50;52.90
67899;DHT22;54699;51.796;10.956;2023-04-07T15:06:08;21.50;53.30
67899;DHT22;54699;51.796;10.956;2023-04-07T15:08:35;21.50;53.20
67899;DHT22;54699;51.796;10.956;2023-04-07T15:11:05;21.60;53.30
67899;DHT22;54699;51.796;10.956;2023-04-07T15:13:33;21.60;53.50
67899;DHT22;54699;51.796;10.956;2023-04-07T15:16:09;21.60;53.40
67899;DHT22;54699;51.796;10.956;2023-04-07T15:18:37;21.60;53.50
67899;DHT22;54699;51.796;10.956;2023-04-07T15:21:06;21.60;53.40
67899;DHT22;54699;51.796;10.956;2023-04-07T15:23:34;21.60;53.40
67899;DHT22;54699;51.796;10.956;2023-04-07T15:26:03;21.60;53.40
67899;DHT22;54699;51.796;10.956;2023-04-07T15:28:30;21.60;53.40
67899;DHT22;54699;51.796;10.956;2023-04-07T15:30:57;21.60;53.30
67899;DHT22;54699;51.796;10.956;2023-04-07T15:33:26;21.60;53.50